sensor_id;sensor_type;location;lat;lon;timestamp;temperature;humidity
4435;DHT22;46552;52.150;8.428;2023-12-04T00:01:14;0.30;99.90
4435;DHT22;46552;52.150;8.428;2023-12-04T00:03:43;0.20;99.90
4435;DHT22;46552;52.150;8.428;2023-12-04T00:06:11;0.20;99.90
4435;DHT22;46552;52.150;8.428;2023-12-04T00:08:39;0.20;99.90
4435;DHT22;46552;52.150;8.428;2023-12-04T00:11:06;0.10;99.90
4435;DHT22;46552;52.150;8.428;2023-12-04T00:13:34;0.10;99.90
4435;DHT22;46552;52.150;8.428;2023-12-04T00:16:01;0.10;99.90
4435;DHT22;46552;52.150;8.428;2023-12-04T00:18:28;0.20;99.90
4435;DHT22;46552;52.150;8.428;2023-12-04T00:20:56;0.10;99.90
4435;DHT22;46552;52.150;8.428;2023-12-04T00:23:24;0.10;99.90
4435;DHT22;46552;52.150;8.428;2023-12-04T00:25:51;0.10;99.90
4435;DHT22;46552;52.150;8.428;2023-12-04T00:28:18;0.00;99.90
4435;DHT22;46552;52.150;8.428;2023-12-04T00:30:46;0.00;99.90
4435;DHT22;46552;52.150;8.428;2023-12-04T00:33:14;0.00;99.90
4435;DHT22;46552;52.150;8.428;2023-12-04T00:35:41;0.10;99.90
4435;DHT22;46552;52.150;8.428;2023-12-04T00:38:09;0.10;99.90
4435;DHT22;46552;52.150;8.428;2023-12-04T00:40:38;0.20;99.90
4435;DHT22;46552;52.150;8.428;2023-12-04T00:43:06;0.10;99.90
4435;DHT22;46552;52.150;8.428;2023-12-04T00:45:34;0.20;99.90
4435;DHT22;46552;52.150;8.428;2023-12-04T00:48:02;0.20;99.90
4435;DHT22;46552;52.150;8.428;2023-12-04T00:50:29;0.10;99.90
4435;DHT22;46552;52.150;8.428;2023-12-04T00:52:56;0.20;99.90
4435;DHT22;46552;52.150;8.428;2023-12-04T00:55:25;0.20;99.90
4435;DHT22;46552;52.150;8.428;2023-12-04T00:57:52;0.10;99.90
4435;DHT22;46552;52.150;8.428;2023-12-04T01:00:20;0.20;99.90
4435;DHT22;46552;52.150;8.428;2023-12-04T01:02:47;0.20;99.90
4435;DHT22;46552;52.150;8.428;2023-12-04T01:05:15;0.20;99.90
4435;DHT22;46552;52.150;8.428;2023-12-04T01:07:42;0.20;99.90
4435;DHT22;46552;52.150;8.428;2023-12-04T01:10:10;0.30;99.90
4435;DHT22;46552;52.150;8.428;2023-12-04T01:12:39;0.30;99.90
4435;DHT22;46552;52.150;8.428;2023-12-04T01:15:07;0.30;99.90
4435;DHT22;46552;52.150;8.428;2023-12-04T01:17:35;0.30;99.90
4435;DHT22;46552;52.150;8.428;2023-12-04T01:20:03;0.30;99.90
4435;DHT22;46552;52.150;8.428;2023-12-04T01:22:30;0.30;99.90
4435;DHT22;46552;52.150;8.428;2023-12-04T01:24:57;0.30;99.90
4435;DHT22;46552;52.150;8.428;2023-12-04T01:27:25;0.30;99.90
4435;DHT22;46552;52.150;8.428;2023-12-04T01:29:53;0.30;99.90
4435;DHT22;46552;52.150;8.428;2023-12-04T01:32:21;0.20;99.90
4435;DHT22;46552;52.150;8.428;2023-12-04T01:34:49;0.30;99.90
4435;DHT22;46552;52.150;8.428;2023-12-04T01:37:16;0.30;99.90
4435;DHT22;46552;52.150;8.428;2023-12-04T01:39:44;0.40;99.90
4435;DHT22;46552;52.150;8.428;2023-12-04T01:42:11;0.40;99.90
4435;DHT22;46552;52.150;8.428;2023-12-04T01:44:39;0.40;99.90
4435;DHT22;46552;52.150;8.428;2023-12-04T01:47:08;0.40;99.90
4435;DHT22;46552;52.150;8.428;2023-12-04T01:49:36;0.50;99.90
4435;DHT22;46552;52.150;8.428;2023-12-04T01:52:04;0.40;99.90
4435;DHT22;46552;52.150;8.428;2023-12-04T01:54:31;0.40;99.90
4435;DHT22;46552;52.150;8.428;2023-12-04T01:57:01;0.40;99.90
4435;DHT22;46552;52.150;8.428;2023-12-04T01:59:30;0.40;99.90
4435;DHT22;46552;52.150;8.428;2023-12-04T02:01:58;0.50;99.90
4435;DHT22;46552;52.150;8.428;2023-12-04T02:04:27;0.50;99.90
4435;DHT22;46552;52.150;8.428;2023-12-04T02:06:54;0.50;99.90
4435;DHT22;46552;52.150;8.428;2023-12-04T02:09:22;0.40;99.90
4435;DHT22;46552;52.150;8.428;2023-12-04T02:11:50;0.40;99.90
4435;DHT22;46552;52.150;8.428;2023-12-04T02:14:18;0.40;99.90
4435;DHT22;46552;52.150;8.428;2023-12-04T02:16:46;0.40;99.90
4435;DHT22;46552;52.150;8.428;2023-12-04T02:19:15;0.40;99.90
4435;DHT22;46552;52.150;8.428;2023-12-04T02:21:44;0.40;99.90
4435;DHT22;46552;52.150;8.428;2023-12-04T02:24:12;0.40;99.90
4435;DHT22;46552;52.150;8.428;2023-12-04T02:26:44;0.40;99.90
4435;DHT22;46552;52.150;8.428;2023-12-04T02:29:17;0.40;99.90
4435;DHT22;46552;52.150;8.428;2023-12-04T02:31:47;0.40;99.90
4435;DHT22;46552;52.150;8.428;2023-12-04T02:34:16;0.30;99.90
4435;DHT22;46552;52.150;8.428;2023-12-04T02:36:43;0.30;99.90
4435;DHT22;46552;52.150;8.428;2023-12-04T02:39:12;0.40;99.90
4435;DHT22;46552;52.150;8.428;2023-12-04T02:41:39;0.40;99.90
4435;DHT22;46552;52.150;8.428;2023-12-04T02:44:07;0.40;99.90
4435;DHT22;46552;52.150;8.428;2023-12-04T02:46:36;0.40;99.90
4435;DHT22;46552;52.150;8.428;2023-12-04T02:49:04;0.40;99.90
4435;DHT22;46552;52.150;8.428;2023-12-04T02:51:31;0.50;99.90
4435;DHT22;46552;52.150;8.428;2023-12-04T02:53:59;0.40;99.90
4435;DHT22;46552;52.150;8.428;2023-12-04T02:56:28;0.40;99.90
4435;DHT22;46552;52.150;8.428;2023-12-04T02:58:56;0.30;99.90
4435;DHT22;46552;52.150;8.428;2023-12-04T03:01:24;0.30;99.90
4435;DHT22;46552;52.150;8.428;2023-12-04T03:03:51;0.40;99.90
4435;DHT22;46552;52.150;8.428;2023-12-04T03:06:18;0.40;99.90
4435;DHT22;46552;52.150;8.428;2023-12-04T03:08:45;0.40;99.90
4435;DHT22;46552;52.150;8.428;2023-12-04T03:11:12;0.50;99.90
4435;DHT22;46552;52.150;8.428;2023-12-04T03:13:41;0.50;99.90
4435;DHT22;46552;52.150;8.428;2023-12-04T03:16:15;0.50;99.90
4435;DHT22;46552;52.150;8.428;2023-12-04T03:18:42;0.50;99.90
4435;DHT22;46552;52.150;8.428;2023-12-04T03:21:09;0.50;99.90
4435;DHT22;46552;52.150;8.428;2023-12-04T03:23:36;0.60;99.90
4435;DHT22;46552;52.150;8.428;2023-12-04T03:26:04;0.50;99.90
4435;DHT22;46552;52.150;8.428;2023-12-04T03:28:31;0.60;99.90
4435;DHT22;46552;52.150;8.428;2023-12-04T03:30:59;0.60;99.90
4435;DHT22;46552;52.150;8.428;2023-12-04T03:33:27;0.60;99.90
4435;DHT22;46552;52.150;8.428;2023-12-04T03:35:54;0.60;99.90
4435;DHT22;46552;52.150;8.428;2023-12-04T03:38:21;0.70;99.90
4435;DHT22;46552;52.150;8.428;2023-12-04T03:40:48;0.70;99.90
4435;DHT22;46552;52.150;8.428;2023-12-04T03:43:15;0.70;99.90
4435;DHT22;46552;52.150;8.428;2023-12-04T03:45:42;0.70;99.90
4435;DHT22;46552;52.150;8.428;2023-12-04T03:48:10;0.80;99.90
4435;DHT22;46552;52.150;8.428;2023-12-04T03:50:39;0.80;99.90
4435;DHT22;46552;52.150;8.428;2023-12-04T03:53:06;0.80;99.90
4435;DHT22;46552;52.150;8.428;2023-12-04T03:55:33;0.80;99.90
4435;DHT22;46552;52.150;8.428;2023-12-04T03:58:00;0.90;99.90
4435;DHT22;46552;52.150;8.428;2023-12-04T04:00:27;0.90;99.90
4435;DHT22;46552;52.150;8.428;2023-12-04T04:02:55;0.90;99.90
4435;DHT22;46552;52.150;8.428;2023-12-04T04:05:24;1.00;99.90
4435;DHT22;46552;52.150;8.428;2023-12-04T04:07:51;1.00;99.90
4435;DHT22;46552;52.150;8.428;2023-12-04T04:10:18;1.10;99.90
4435;DHT22;46552;52.150;8.428;2023-12-04T04:12:45;1.10;99.90
4435;DHT22;46552;52.150;8.428;2023-12-04T04:15:12;1.20;99.90
4435;DHT22;46552;52.150;8.428;2023-12-04T04:17:40;1.20;99.90
4435;DHT22;46552;52.150;8.428;2023-12-04T04:20:09;1.30;99.90
4435;DHT22;46552;52.150;8.428;2023-12-04T04:22:39;1.30;99.90
4435;DHT22;46552;52.150;8.428;2023-12-04T04:25:07;1.30;99.90
4435;DHT22;46552;52.150;8.428;2023-12-04T04:27:34;1.30;99.90
4435;DHT22;46552;52.150;8.428;2023-12-04T04:30:03;1.30;99.90
4435;DHT22;46552;52.150;8.428;2023-12-04T04:32:30;1.30;99.90
4435;DHT22;46552;52.150;8.428;2023-12-04T04:34:57;1.30;99.90
4435;DHT22;46552;52.150;8.428;2023-12-04T04:37:24;1.30;99.90
4435;DHT22;46552;52.150;8.428;2023-12-04T04:39:53;1.30;99.90
4435;DHT22;46552;52.150;8.428;2023-12-04T04:42:23;1.30;99.90
4435;DHT22;46552;52.150;8.428;2023-12-04T04:44:50;1.30;99.90
4435;DHT22;46552;52.150;8.428;2023-12-04T04:47:18;1.30;99.90
4435;DHT22;46552;52.150;8.428;2023-12-04T04:49:47;1.30;99.90
4435;DHT22;46552;52.150;8.428;2023-12-04T04:52:14;1.40;99.90
4435;DHT22;46552;52.150;8.428;2023-12-04T04:54:41;1.40;99.90
4435;DHT22;46552;52.150;8.428;2023-12-04T04:57:10;1.40;99.90
4435;DHT22;46552;52.150;8.428;2023-12-04T04:59:38;1.40;99.90
4435;DHT22;46552;52.150;8.428;2023-12-04T05:02:05;1.40;99.90
4435;DHT22;46552;52.150;8.428;2023-12-04T05:04:32;1.40;99.90
4435;DHT22;46552;52.150;8.428;2023-12-04T05:07:00;1.40;99.90
4435;DHT22;46552;52.150;8.428;2023-12-04T05:09:27;1.40;99.90
4435;DHT22;46552;52.150;8.428;2023-12-04T05:11:55;1.40;99.90
4435;DHT22;46552;52.150;8.428;2023-12-04T05:14:24;1.40;99.90
4435;DHT22;46552;52.150;8.428;2023-12-04T05:16:52;1.40;99.90
4435;DHT22;46552;52.150;8.428;2023-12-04T05:19:19;1.40;99.90
4435;DHT22;46552;52.150;8.428;2023-12-04T05:21:48;1.50;99.90
4435;DHT22;46552;52.150;8.428;2023-12-04T05:24:15;1.50;99.90
4435;DHT22;46552;52.150;8.428;2023-12-04T05:26:42;1.50;99.90
4435;DHT22;46552;52.150;8.428;2023-12-04T05:29:10;1.50;99.90
4435;DHT22;46552;52.150;8.428;2023-12-04T05:31:38;1.60;99.90
4435;DHT22;46552;52.150;8.428;2023-12-04T05:34:05;1.60;99.90
4435;DHT22;46552;52.150;8.428;2023-12-04T05:36:33;1.50;99.90
4435;DHT22;46552;52.150;8.428;2023-12-04T05:39:00;1.60;99.90
4435;DHT22;46552;52.150;8.428;2023-12-04T05:41:28;1.60;99.90
4435;DHT22;46552;52.150;8.428;2023-12-04T05:43:55;1.60;99.90
4435;DHT22;46552;52.150;8.428;2023-12-04T05:46:22;1.60;99.90
4435;DHT22;46552;52.150;8.428;2023-12-04T05:48:50;1.70;99.90
4435;DHT22;46552;52.150;8.428;2023-12-04T05:51:18;1.70;99.90
4435;DHT22;46552;52.150;8.428;2023-12-04T05:53:45;1.70;99.90
4435;DHT22;46552;52.150;8.428;2023-12-04T05:56:13;1.60;99.90
4435;DHT22;46552;52.150;8.428;2023-12-04T05:58:40;1.60;99.90
4435;DHT22;46552;52.150;8.428;2023-12-04T06:01:07;1.60;99.90
4435;DHT22;46552;52.150;8.428;2023-12-04T06:03:35;1.60;99.90
4435;DHT22;46552;52.150;8.428;2023-12-04T06:06:05;1.60;99.90
4435;DHT22;46552;52.150;8.428;2023-12-04T06:08:32;1.60;99.90
4435;DHT22;46552;52.150;8.428;2023-12-04T06:11:00;1.60;99.90
4435;DHT22;46552;52.150;8.428;2023-12-04T06:13:28;1.60;99.90
4435;DHT22;46552;52.150;8.428;2023-12-04T06:15:55;1.60;99.90
4435;DHT22;46552;52.150;8.428;2023-12-04T06:18:22;1.50;99.90
4435;DHT22;46552;52.150;8.428;2023-12-04T06:20:49;1.50;99.90
4435;DHT22;46552;52.150;8.428;2023-12-04T06:23:19;1.50;99.90
4435;DHT22;46552;52.150;8.428;2023-12-04T06:25:47;1.60;99.90
4435;DHT22;46552;52.150;8.428;2023-12-04T06:28:15;1.60;99.90
4435;DHT22;46552;52.150;8.428;2023-12-04T06:30:43;1.60;99.90
4435;DHT22;46552;52.150;8.428;2023-12-04T06:33:11;1.60;99.90
4435;DHT22;46552;52.150;8.428;2023-12-04T06:35:40;1.60;99.90
4435;DHT22;46552;52.150;8.428;2023-12-04T06:38:08;1.60;99.90
4435;DHT22;46552;52.150;8.428;2023-12-04T06:40:38;1.60;99.90
4435;DHT22;46552;52.150;8.428;2023-12-04T06:43:06;1.60;99.90
4435;DHT22;46552;52.150;8.428;2023-12-04T06:45:34;1.60;99.90
4435;DHT22;46552;52.150;8.428;2023-12-04T06:48:02;1.60;99.90
4435;DHT22;46552;52.150;8.428;2023-12-04T06:50:29;1.50;99.90
4435;DHT22;46552;52.150;8.428;2023-12-04T06:52:57;1.60;99.90
4435;DHT22;46552;52.150;8.428;2023-12-04T06:55:24;1.60;99.90
4435;DHT22;46552;52.150;8.428;2023-12-04T06:57:53;1.60;99.90
4435;DHT22;46552;52.150;8.428;2023-12-04T07:00:20;1.70;99.90
4435;DHT22;46552;52.150;8.428;2023-12-04T07:02:47;1.60;99.90
4435;DHT22;46552;52.150;8.428;2023-12-04T07:05:14;1.60;99.90
4435;DHT22;46552;52.150;8.428;2023-12-04T07:07:42;1.60;99.90
4435;DHT22;46552;52.150;8.428;2023-12-04T07:10:10;1.60;99.90
4435;DHT22;46552;52.150;8.428;2023-12-04T07:12:40;1.70;99.90
4435;DHT22;46552;52.150;8.428;2023-12-04T07:15:10;1.70;99.90
4435;DHT22;46552;52.150;8.428;2023-12-04T07:17:41;1.70;99.90
4435;DHT22;46552;52.150;8.428;2023-12-04T07:20:09;1.70;99.90
4435;DHT22;46552;52.150;8.428;2023-12-04T07:22:38;1.80;99.90
4435;DHT22;46552;52.150;8.428;2023-12-04T07:25:06;1.80;99.90
4435;DHT22;46552;52.150;8.428;2023-12-04T07:27:33;1.80;99.90
4435;DHT22;46552;52.150;8.428;2023-12-04T07:30:01;1.80;99.90
4435;DHT22;46552;52.150;8.428;2023-12-04T07:32:31;1.80;99.90
4435;DHT22;46552;52.150;8.428;2023-12-04T07:34:58;1.80;99.90
4435;DHT22;46552;52.150;8.428;2023-12-04T07:37:27;1.80;99.90
4435;DHT22;46552;52.150;8.428;2023-12-04T07:39:56;1.80;99.90
4435;DHT22;46552;52.150;8.428;2023-12-04T07:42:23;1.80;99.90
4435;DHT22;46552;52.150;8.428;2023-12-04T07:44:51;1.80;99.90
4435;DHT22;46552;52.150;8.428;2023-12-04T07:47:19;1.80;99.90
4435;DHT22;46552;52.150;8.428;2023-12-04T07:49:47;1.70;99.90
4435;DHT22;46552;52.150;8.428;2023-12-04T07:52:14;1.70;99.90
4435;DHT22;46552;52.150;8.428;2023-12-04T07:54:42;1.80;99.90
4435;DHT22;46552;52.150;8.428;2023-12-04T07:57:10;1.70;99.90
4435;DHT22;46552;52.150;8.428;2023-12-04T07:59:37;1.60;99.90
4435;DHT22;46552;52.150;8.428;2023-12-04T08:02:04;1.60;99.90
4435;DHT22;46552;52.150;8.428;2023-12-04T08:04:31;1.60;99.90
4435;DHT22;46552;52.150;8.428;2023-12-04T08:07:00;1.60;99.90
4435;DHT22;46552;52.150;8.428;2023-12-04T08:09:27;1.50;99.90
4435;DHT22;46552;52.150;8.428;2023-12-04T08:11:54;1.50;99.90
4435;DHT22;46552;52.150;8.428;2023-12-04T08:14:21;1.50;99.90
4435;DHT22;46552;52.150;8.428;2023-12-04T08:16:49;1.50;99.90
4435;DHT22;46552;52.150;8.428;2023-12-04T08:19:16;1.50;99.90
4435;DHT22;46552;52.150;8.428;2023-12-04T08:21:44;1.60;99.90
4435;DHT22;46552;52.150;8.428;2023-12-04T08:24:13;1.60;99.90
4435;DHT22;46552;52.150;8.428;2023-12-04T08:26:43;1.60;99.90
4435;DHT22;46552;52.150;8.428;2023-12-04T08:29:10;1.70;99.90
4435;DHT22;46552;52.150;8.428;2023-12-04T08:31:37;1.70;99.90
4435;DHT22;46552;52.150;8.428;2023-12-04T08:34:04;1.70;99.90
4435;DHT22;46552;52.150;8.428;2023-12-04T08:36:32;1.80;99.90
4435;DHT22;46552;52.150;8.428;2023-12-04T08:39:00;1.80;99.90
4435;DHT22;46552;52.150;8.428;2023-12-04T08:41:31;1.90;99.90
4435;DHT22;46552;52.150;8.428;2023-12-04T08:43:58;1.90;99.90
4435;DHT22;46552;52.150;8.428;2023-12-04T08:46:26;1.90;99.90
4435;DHT22;46552;52.150;8.428;2023-12-04T08:48:54;1.90;99.90
4435;DHT22;46552;52.150;8.428;2023-12-04T08:51:22;2.00;99.90
4435;DHT22;46552;52.150;8.428;2023-12-04T08:53:51;2.00;99.90
4435;DHT22;46552;52.150;8.428;2023-12-04T08:56:19;2.00;99.90
4435;DHT22;46552;52.150;8.428;2023-12-04T08:58:48;1.90;99.90
4435;DHT22;46552;52.150;8.428;2023-12-04T09:01:16;1.90;99.90
4435;DHT22;46552;52.150;8.428;2023-12-04T09:03:43;1.90;99.90
4435;DHT22;46552;52.150;8.428;2023-12-04T09:06:11;1.80;99.90
4435;DHT22;46552;52.150;8.428;2023-12-04T09:08:40;1.80;99.90
4435;DHT22;46552;52.150;8.428;2023-12-04T09:11:08;1.90;99.90
4435;DHT22;46552;52.150;8.428;2023-12-04T09:13:36;1.90;99.90
4435;DHT22;46552;52.150;8.428;2023-12-04T09:16:06;2.00;99.90
4435;DHT22;46552;52.150;8.428;2023-12-04T09:18:34;1.90;99.90
4435;DHT22;46552;52.150;8.428;2023-12-04T09:21:01;1.80;99.90
4435;DHT22;46552;52.150;8.428;2023-12-04T09:23:28;1.80;99.90
4435;DHT22;46552;52.150;8.428;2023-12-04T09:25:56;1.80;99.90
4435;DHT22;46552;52.150;8.428;2023-12-04T09:28:23;1.80;99.90
4435;DHT22;46552;52.150;8.428;2023-12-04T09:30:51;1.90;99.90
4435;DHT22;46552;52.150;8.428;2023-12-04T09:33:20;2.00;99.90
4435;DHT22;46552;52.150;8.428;2023-12-04T09:35:47;2.00;99.90
4435;DHT22;46552;52.150;8.428;2023-12-04T09:38:14;2.10;99.90
4435;DHT22;46552;52.150;8.428;2023-12-04T09:40:42;2.10;99.90
4435;DHT22;46552;52.150;8.428;2023-12-04T09:43:11;2.20;99.90
4435;DHT22;46552;52.150;8.428;2023-12-04T09:45:38;2.20;99.90
4435;DHT22;46552;52.150;8.428;2023-12-04T09:48:06;2.30;99.90
4435;DHT22;46552;52.150;8.428;2023-12-04T09:50:36;2.20;99.90
4435;DHT22;46552;52.150;8.428;2023-12-04T09:53:08;2.20;99.90
4435;DHT22;46552;52.150;8.428;2023-12-04T09:55:38;2.20;99.90
4435;DHT22;46552;52.150;8.428;2023-12-04T09:58:05;2.20;99.90
4435;DHT22;46552;52.150;8.428;2023-12-04T10:00:33;2.30;99.90
4435;DHT22;46552;52.150;8.428;2023-12-04T10:03:01;2.30;99.90
4435;DHT22;46552;52.150;8.428;2023-12-04T10:05:29;2.30;99.90
4435;DHT22;46552;52.150;8.428;2023-12-04T10:08:01;2.30;99.90
4435;DHT22;46552;52.150;8.428;2023-12-04T10:10:28;2.30;99.90
4435;DHT22;46552;52.150;8.428;2023-12-04T10:12:56;2.30;99.90
4435;DHT22;46552;52.150;8.428;2023-12-04T10:15:24;2.30;99.90
4435;DHT22;46552;52.150;8.428;2023-12-04T10:17:51;2.30;99.90
4435;DHT22;46552;52.150;8.428;2023-12-04T10:20:20;2.30;99.90
4435;DHT22;46552;52.150;8.428;2023-12-04T10:22:53;2.30;99.90
4435;DHT22;46552;52.150;8.428;2023-12-04T10:25:23;2.30;99.90
4435;DHT22;46552;52.150;8.428;2023-12-04T10:27:51;2.30;99.90
4435;DHT22;46552;52.150;8.428;2023-12-04T10:30:24;2.30;99.90
4435;DHT22;46552;52.150;8.428;2023-12-04T10:32:55;2.30;99.90
4435;DHT22;46552;52.150;8.428;2023-12-04T10:35:26;2.30;99.90
4435;DHT22;46552;52.150;8.428;2023-12-04T10:37:55;2.30;99.90
4435;DHT22;46552;52.150;8.428;2023-12-04T10:40:28;2.40;99.90
4435;DHT22;46552;52.150;8.428;2023-12-04T10:43:13;2.40;99.90
4435;DHT22;46552;52.150;8.428;2023-12-04T10:45:42;2.40;99.90
4435;DHT22;46552;52.150;8.428;2023-12-04T10:48:10;2.40;99.90
4435;DHT22;46552;52.150;8.428;2023-12-04T10:50:38;2.40;99.90
4435;DHT22;46552;52.150;8.428;2023-12-04T10:53:06;2.50;99.90
4435;DHT22;46552;52.150;8.428;2023-12-04T10:55:35;2.50;99.90
4435;DHT22;46552;52.150;8.428;2023-12-04T10:58:05;2.60;99.90
4435;DHT22;46552;52.150;8.428;2023-12-04T11:00:34;2.60;99.90
4435;DHT22;46552;52.150;8.428;2023-12-04T11:03:04;2.60;99.90
4435;DHT22;46552;52.150;8.428;2023-12-04T11:05:33;2.70;99.90
4435;DHT22;46552;52.150;8.428;2023-12-04T11:08:05;2.70;99.90
4435;DHT22;46552;52.150;8.428;2023-12-04T11:10:45;2.70;99.90
4435;DHT22;46552;52.150;8.428;2023-12-04T11:13:16;2.60;99.90
4435;DHT22;46552;52.150;8.428;2023-12-04T11:15:48;2.60;99.90
4435;DHT22;46552;52.150;8.428;2023-12-04T11:18:16;2.60;99.90
4435;DHT22;46552;52.150;8.428;2023-12-04T11:20:53;2.60;99.90
4435;DHT22;46552;52.150;8.428;2023-12-04T11:23:24;2.70;99.90
4435;DHT22;46552;52.150;8.428;2023-12-04T11:25:54;2.70;99.90
4435;DHT22;46552;52.150;8.428;2023-12-04T11:28:21;2.70;99.90
4435;DHT22;46552;52.150;8.428;2023-12-04T11:30:49;2.70;99.60
4435;DHT22;46552;52.150;8.428;2023-12-04T11:33:17;2.60;99.30
4435;DHT22;46552;52.150;8.428;2023-12-04T11:35:45;2.60;99.40
4435;DHT22;46552;52.150;8.428;2023-12-04T11:38:13;2.60;99.40
4435;DHT22;46552;52.150;8.428;2023-12-04T11:40:41;2.60;99.50
4435;DHT22;46552;52.150;8.428;2023-12-04T11:43:24;2.70;99.60
4435;DHT22;46552;52.150;8.428;2023-12-04T11:45:51;2.70;99.10
4435;DHT22;46552;52.150;8.428;2023-12-04T11:48:23;2.80;99.20
4435;DHT22;46552;52.150;8.428;2023-12-04T11:50:50;2.80;99.00
4435;DHT22;46552;52.150;8.428;2023-12-04T11:53:17;2.70;98.90
4435;DHT22;46552;52.150;8.428;2023-12-04T11:55:46;2.80;98.80
4435;DHT22;46552;52.150;8.428;2023-12-04T11:58:15;2.90;99.20
4435;DHT22;46552;52.150;8.428;2023-12-04T12:00:44;2.90;98.90
4435;DHT22;46552;52.150;8.428;2023-12-04T12:03:14;2.80;98.60
4435;DHT22;46552;52.150;8.428;2023-12-04T12:05:42;2.80;98.90
4435;DHT22;46552;52.150;8.428;2023-12-04T12:08:09;2.80;99.00
4435;DHT22;46552;52.150;8.428;2023-12-04T12:10:37;2.90;99.30
4435;DHT22;46552;52.150;8.428;2023-12-04T12:13:04;2.90;99.20
4435;DHT22;46552;52.150;8.428;2023-12-04T12:15:32;2.90;99.00
4435;DHT22;46552;52.150;8.428;2023-12-04T12:18:01;3.00;99.40
4435;DHT22;46552;52.150;8.428;2023-12-04T12:20:30;3.00;99.40
4435;DHT22;46552;52.150;8.428;2023-12-04T12:22:57;3.00;99.60
4435;DHT22;46552;52.150;8.428;2023-12-04T12:25:24;3.00;99.60
4435;DHT22;46552;52.150;8.428;2023-12-04T12:27:53;2.90;99.60
4435;DHT22;46552;52.150;8.428;2023-12-04T12:30:20;2.90;99.80
4435;DHT22;46552;52.150;8.428;2023-12-04T12:32:47;3.00;99.90
4435;DHT22;46552;52.150;8.428;2023-12-04T12:35:17;3.00;99.80
4435;DHT22;46552;52.150;8.428;2023-12-04T12:37:44;3.00;99.90
4435;DHT22;46552;52.150;8.428;2023-12-04T12:40:12;3.00;99.90
4435;DHT22;46552;52.150;8.428;2023-12-04T12:42:39;3.00;99.90
4435;DHT22;46552;52.150;8.428;2023-12-04T12:45:09;3.10;99.90
4435;DHT22;46552;52.150;8.428;2023-12-04T12:47:37;3.00;99.70
4435;DHT22;46552;52.150;8.428;2023-12-04T12:50:08;2.90;99.40
4435;DHT22;46552;52.150;8.428;2023-12-04T12:52:40;2.80;99.60
4435;DHT22;46552;52.150;8.428;2023-12-04T12:55:08;2.70;99.90
4435;DHT22;46552;52.150;8.428;2023-12-04T12:57:35;2.70;99.80
4435;DHT22;46552;52.150;8.428;2023-12-04T13:00:06;2.60;99.80
4435;DHT22;46552;52.150;8.428;2023-12-04T13:02:36;2.60;99.90
4435;DHT22;46552;52.150;8.428;2023-12-04T13:05:05;2.60;99.60
4435;DHT22;46552;52.150;8.428;2023-12-04T13:07:33;2.60;99.60
4435;DHT22;46552;52.150;8.428;2023-12-04T13:10:02;2.60;99.80
4435;DHT22;46552;52.150;8.428;2023-12-04T13:12:30;2.50;99.20
4435;DHT22;46552;52.150;8.428;2023-12-04T13:14:58;2.60;99.50
4435;DHT22;46552;52.150;8.428;2023-12-04T13:17:25;2.60;99.70
4435;DHT22;46552;52.150;8.428;2023-12-04T13:19:54;2.60;99.40
4435;DHT22;46552;52.150;8.428;2023-12-04T13:22:22;2.60;99.20
4435;DHT22;46552;52.150;8.428;2023-12-04T13:24:50;2.60;99.60
4435;DHT22;46552;52.150;8.428;2023-12-04T13:27:18;2.60;99.60
4435;DHT22;46552;52.150;8.428;2023-12-04T13:29:46;2.60;99.50
4435;DHT22;46552;52.150;8.428;2023-12-04T13:32:17;2.70;99.50
4435;DHT22;46552;52.150;8.428;2023-12-04T13:34:44;2.70;99.70
4435;DHT22;46552;52.150;8.428;2023-12-04T13:37:12;2.60;99.70
4435;DHT22;46552;52.150;8.428;2023-12-04T13:39:39;2.70;99.80
4435;DHT22;46552;52.150;8.428;2023-12-04T13:42:14;2.70;99.80
4435;DHT22;46552;52.150;8.428;2023-12-04T13:45:01;2.70;99.60
4435;DHT22;46552;52.150;8.428;2023-12-04T13:47:30;2.70;99.90
4435;DHT22;46552;52.150;8.428;2023-12-04T13:50:00;2.70;99.90
4435;DHT22;46552;52.150;8.428;2023-12-04T13:52:27;2.70;99.90
4435;DHT22;46552;52.150;8.428;2023-12-04T13:54:59;2.70;99.70
4435;DHT22;46552;52.150;8.428;2023-12-04T13:57:26;2.60;99.90
4435;DHT22;46552;52.150;8.428;2023-12-04T13:59:58;2.60;99.90
4435;DHT22;46552;52.150;8.428;2023-12-04T14:02:26;2.60;99.90
4435;DHT22;46552;52.150;8.428;2023-12-04T14:04:53;2.60;99.90
4435;DHT22;46552;52.150;8.428;2023-12-04T14:07:21;2.60;99.90
4435;DHT22;46552;52.150;8.428;2023-12-04T14:09:50;2.60;99.90
4435;DHT22;46552;52.150;8.428;2023-12-04T14:12:17;2.60;99.90
4435;DHT22;46552;52.150;8.428;2023-12-04T14:14:45;2.60;99.90
4435;DHT22;46552;52.150;8.428;2023-12-04T14:17:12;2.60;99.90
4435;DHT22;46552;52.150;8.428;2023-12-04T14:19:41;2.60;99.90
4435;DHT22;46552;52.150;8.428;2023-12-04T14:22:08;2.50;99.90
4435;DHT22;46552;52.150;8.428;2023-12-04T14:24:35;2.60;99.90
4435;DHT22;46552;52.150;8.428;2023-12-04T14:27:03;2.50;99.90
4435;DHT22;46552;52.150;8.428;2023-12-04T14:29:31;2.50;99.90
4435;DHT22;46552;52.150;8.428;2023-12-04T14:31:58;2.40;99.90
4435;DHT22;46552;52.150;8.428;2023-12-04T14:34:26;2.40;99.90
4435;DHT22;46552;52.150;8.428;2023-12-04T14:36:55;2.40;99.90
4435;DHT22;46552;52.150;8.428;2023-12-04T14:39:22;2.40;99.90
4435;DHT22;46552;52.150;8.428;2023-12-04T14:41:49;2.30;99.90
4435;DHT22;46552;52.150;8.428;2023-12-04T14:44:16;2.40;99.90
4435;DHT22;46552;52.150;8.428;2023-12-04T14:46:44;2.40;99.90
4435;DHT22;46552;52.150;8.428;2023-12-04T14:49:12;2.30;99.90
4435;DHT22;46552;52.150;8.428;2023-12-04T14:51:40;2.30;99.90
4435;DHT22;46552;52.150;8.428;2023-12-04T14:54:09;2.30;99.90
4435;DHT22;46552;52.150;8.428;2023-12-04T14:56:47;2.30;99.90
4435;DHT22;46552;52.150;8.428;2023-12-04T14:59:37;2.30;99.90
4435;DHT22;46552;52.150;8.428;2023-12-04T15:02:45;2.30;99.90
4435;DHT22;46552;52.150;8.428;2023-12-04T15:05:28;2.20;99.90
4435;DHT22;46552;52.150;8.428;2023-12-04T15:08:21;2.20;99.90
4435;DHT22;46552;52.150;8.428;2023-12-04T15:11:07;2.20;99.90
4435;DHT22;46552;52.150;8.428;2023-12-04T15:14:08;2.20;99.90
4435;DHT22;46552;52.150;8.428;2023-12-04T15:16:45;2.20;99.90
4435;DHT22;46552;52.150;8.428;2023-12-04T15:19:15;2.20;99.90
4435;DHT22;46552;52.150;8.428;2023-12-04T15:22:01;2.20;99.90
4435;DHT22;46552;52.150;8.428;2023-12-04T15:24:30;2.20;99.90
4435;DHT22;46552;52.150;8.428;2023-12-04T15:26:58;2.20;99.90
4435;DHT22;46552;52.150;8.428;2023-12-04T15:29:26;2.10;99.90
4435;DHT22;46552;52.150;8.428;2023-12-04T15:31:52;2.00;99.90
4435;DHT22;46552;52.150;8.428;2023-12-04T15:34:19;1.90;99.90
4435;DHT22;46552;52.150;8.428;2023-12-04T15:36:47;1.90;99.90
4435;DHT22;46552;52.150;8.428;2023-12-04T15:39:14;1.90;99.90
4435;DHT22;46552;52.150;8.428;2023-12-04T15:45:08;1.80;99.90
4435;DHT22;46552;52.150;8.428;2023-12-04T15:47:36;1.80;99.90
4435;DHT22;46552;52.150;8.428;2023-12-04T15:50:02;1.70;99.90
4435;DHT22;46552;52.150;8.428;2023-12-04T15:52:33;1.70;99.90
4435;DHT22;46552;52.150;8.428;2023-12-04T15:54:59;1.60;99.90
4435;DHT22;46552;52.150;8.428;2023-12-04T15:57:28;1.60;99.90
4435;DHT22;46552;52.150;8.428;2023-12-04T15:59:54;1.50;99.90
4435;DHT22;46552;52.150;8.428;2023-12-04T16:02:22;1.50;99.90
4435;DHT22;46552;52.150;8.428;2023-12-04T16:04:50;1.40;99.90
4435;DHT22;46552;52.150;8.428;2023-12-04T16:07:17;1.30;99.90
4435;DHT22;46552;52.150;8.428;2023-12-04T16:09:44;1.30;99.90
4435;DHT22;46552;52.150;8.428;2023-12-04T16:12:12;1.30;99.90
4435;DHT22;46552;52.150;8.428;2023-12-04T16:14:39;1.30;99.90